createdAt,value
2018-11-13T00:02:11.096Z,61.70
2018-11-13T00:04:38.735Z,61.50
2018-11-13T00:07:06.328Z,61.40
2018-11-13T00:09:48.862Z,61.30
2018-11-13T00:12:16.553Z,61.20
2018-11-13T00:14:44.328Z,61.10
2018-11-13T00:17:11.935Z,61.00
2018-11-13T00:19:39.654Z,60.90
2018-11-13T00:22:07.300Z,61.00
2018-11-13T00:24:34.974Z,60.80
2018-11-13T00:27:02.528Z,60.60
2018-11-13T00:29:30.393Z,60.60
2018-11-13T00:31:58.067Z,60.60
2018-11-13T00:34:25.763Z,60.60
2018-11-13T00:36:53.298Z,60.60
2018-11-13T00:39:21.245Z,60.70
2018-11-13T00:41:48.528Z,60.70
2018-11-13T00:44:16.103Z,60.60
2018-11-13T00:46:43.690Z,60.90
2018-11-13T00:49:12.389Z,62.10
2018-11-13T00:51:40.048Z,61.10
2018-11-13T00:54:07.700Z,61.50
2018-11-13T00:56:35.377Z,61.80
2018-11-13T00:59:02.971Z,62.20
2018-11-13T01:01:30.589Z,62.50
2018-11-13T01:03:58.190Z,62.50
2018-11-13T01:06:25.878Z,62.70
2018-11-13T01:08:53.475Z,64.90
2018-11-13T01:11:21.147Z,64.10
2018-11-13T01:13:48.737Z,65.70
2018-11-13T01:16:16.364Z,68.00
2018-11-13T01:18:43.923Z,67.90
2018-11-13T01:21:11.518Z,69.00
2018-11-13T01:23:39.181Z,70.40
2018-11-13T01:26:06.754Z,70.80
2018-11-13T01:28:34.358Z,72.50
2018-11-13T01:31:01.916Z,73.20
2018-11-13T01:33:30.357Z,74.10
2018-11-13T01:35:57.970Z,74.70
2018-11-13T01:38:25.567Z,75.20
2018-11-13T01:40:53.138Z,75.20
2018-11-13T01:43:20.736Z,75.20
2018-11-13T01:45:48.410Z,75.10
2018-11-13T01:48:15.982Z,75.40
2018-11-13T01:50:43.544Z,75.60
2018-11-13T01:53:11.181Z,75.00
2018-11-13T01:55:38.738Z,75.20
2018-11-13T01:58:06.331Z,76.30
2018-11-13T02:00:33.863Z,77.70
2018-11-13T02:03:01.460Z,77.70
2018-11-13T02:05:29.735Z,77.60
2018-11-13T02:07:58.034Z,78.40
2018-11-13T02:10:25.796Z,78.40
2018-11-13T02:12:53.435Z,74.80
2018-11-13T02:15:21.522Z,75.50
2018-11-13T02:17:49.140Z,76.00
2018-11-13T02:20:18.190Z,77.90
2018-11-13T02:22:45.767Z,73.50
2018-11-13T02:25:14.562Z,76.40
2018-11-13T02:27:42.486Z,75.00
2018-11-13T02:30:12.842Z,74.60
2018-11-13T02:32:41.004Z,73.10
2018-11-13T02:35:09.503Z,73.10
2018-11-13T02:37:37.051Z,71.60
2018-11-13T02:40:05.130Z,70.40
2018-11-13T02:42:33.366Z,69.20
2018-11-13T02:45:00.969Z,69.20
2018-11-13T02:47:28.627Z,67.90
2018-11-13T02:49:56.213Z,66.40
2018-11-13T02:52:23.817Z,67.90
2018-11-13T02:54:51.427Z,66.50
2018-11-13T02:57:18.996Z,66.40
2018-11-13T02:59:46.538Z,65.80
2018-11-13T03:02:14.183Z,64.80
2018-11-13T03:04:41.890Z,65.80
2018-11-13T03:07:09.545Z,67.40
2018-11-13T03:09:37.126Z,66.00
2018-11-13T03:12:04.982Z,66.80
2018-11-13T03:14:32.756Z,66.40
2018-11-13T03:17:00.309Z,68.00
2018-11-13T03:19:28.070Z,68.40
2018-11-13T03:21:55.746Z,71.00
2018-11-13T03:24:23.342Z,67.90
2018-11-13T03:26:51.207Z,68.40
2018-11-13T03:29:18.908Z,69.70
2018-11-13T03:31:46.546Z,74.50
2018-11-13T03:34:14.166Z,70.30
2018-11-13T03:36:41.746Z,70.80
2018-11-13T03:39:10.527Z,70.80
2018-11-13T03:41:38.674Z,70.70
2018-11-13T03:44:07.698Z,72.70
2018-11-13T03:46:35.372Z,73.30
2018-11-13T03:49:02.931Z,77.50
2018-11-13T03:51:30.602Z,75.80
2018-11-13T03:53:58.367Z,71.20
2018-11-13T03:56:26.220Z,71.10
2018-11-13T03:58:53.871Z,76.50
2018-11-13T04:01:21.489Z,72.40
2018-11-13T04:03:49.170Z,72.00
2018-11-13T04:06:16.790Z,71.40
2018-11-13T04:08:44.351Z,72.50
2018-11-13T04:11:11.882Z,73.10
2018-11-13T04:13:40.430Z,73.40
2018-11-13T04:16:08.051Z,74.80
2018-11-13T04:18:35.662Z,74.10
2018-11-13T04:21:03.294Z,73.40
2018-11-13T04:23:30.852Z,73.30
2018-11-13T04:25:58.517Z,73.00
2018-11-13T04:28:26.762Z,72.50
2018-11-13T04:30:54.417Z,72.60
2018-11-13T04:33:21.917Z,72.40
2018-11-13T04:35:49.573Z,72.00
2018-11-13T04:38:17.133Z,72.20
2018-11-13T04:40:44.914Z,72.10
2018-11-13T04:43:12.500Z,71.70
2018-11-13T04:45:40.069Z,72.50
2018-11-13T04:48:07.734Z,71.30
2018-11-13T04:50:35.390Z,70.90
2018-11-13T04:53:03.014Z,70.80
2018-11-13T04:55:30.701Z,70.80
2018-11-13T04:57:58.234Z,70.80
2018-11-13T05:00:25.948Z,71.00
2018-11-13T05:02:53.612Z,70.00
2018-11-13T05:05:21.781Z,71.00
2018-11-13T05:07:50.594Z,70.90
2018-11-13T05:10:18.251Z,70.90
2018-11-13T05:12:46.687Z,71.00
2018-11-13T05:15:14.511Z,71.30
2018-11-13T05:17:42.905Z,70.60
2018-11-13T05:20:11.791Z,71.20
2018-11-13T05:22:39.349Z,71.30
2018-11-13T05:25:09.051Z,71.20
2018-11-13T05:27:36.837Z,71.60
2018-11-13T05:30:06.114Z,71.10
2018-11-13T05:32:34.387Z,70.70
2018-11-13T05:35:01.961Z,70.60
2018-11-13T05:37:29.607Z,71.00
2018-11-13T05:39:57.193Z,70.00
2018-11-13T05:42:24.873Z,70.90
2018-11-13T05:44:53.606Z,71.50
2018-11-13T05:47:21.221Z,71.70
2018-11-13T05:49:48.759Z,71.40
2018-11-13T05:52:16.298Z,71.00
2018-11-13T05:54:43.960Z,70.80
2018-11-13T05:57:11.586Z,70.20
2018-11-13T05:59:39.230Z,69.50
2018-11-13T06:02:06.787Z,70.80
2018-11-13T06:04:35.646Z,70.10
2018-11-13T06:07:03.300Z,70.70
2018-11-13T06:09:30.873Z,70.80
2018-11-13T06:11:58.458Z,71.20
2018-11-13T06:14:27.075Z,71.00
2018-11-13T06:16:54.857Z,69.10
2018-11-13T06:19:22.478Z,69.40
2018-11-13T06:21:50.030Z,69.80
2018-11-13T06:24:17.617Z,70.80
2018-11-13T06:26:45.222Z,70.10
2018-11-13T06:29:12.903Z,70.70
2018-11-13T06:31:40.561Z,71.20
2018-11-13T06:34:08.318Z,71.40
2018-11-13T06:36:36.030Z,71.50
2018-11-13T06:39:05.746Z,72.00
2018-11-13T06:41:33.373Z,71.50
2018-11-13T06:44:01.023Z,71.50
2018-11-13T06:46:28.599Z,71.30
2018-11-13T06:48:56.315Z,71.90
2018-11-13T06:51:23.918Z,71.80
2018-11-13T06:54:02.991Z,71.60
2018-11-13T06:56:30.662Z,71.90
2018-11-13T06:58:58.214Z,72.00
2018-11-13T07:01:25.822Z,72.30
2018-11-13T07:03:53.417Z,72.20
2018-11-13T07:06:21.071Z,72.10
2018-11-13T07:08:48.788Z,72.20
2018-11-13T07:11:16.457Z,72.00
2018-11-13T07:13:44.055Z,72.00
2018-11-13T07:16:11.646Z,72.50
2018-11-13T07:18:39.244Z,73.00
2018-11-13T07:21:06.938Z,72.70
2018-11-13T07:23:34.554Z,72.40
2018-11-13T07:26:02.174Z,72.60
2018-11-13T07:28:29.780Z,72.90
2018-11-13T07:30:57.487Z,73.10
2018-11-13T07:33:25.208Z,73.00
2018-11-13T07:35:52.770Z,74.00
2018-11-13T07:38:20.343Z,74.40
2018-11-13T07:40:47.911Z,74.50
2018-11-13T07:43:15.502Z,74.40
2018-11-13T07:45:43.126Z,74.80
2018-11-13T07:48:10.699Z,74.60
2018-11-13T07:50:38.434Z,75.20
2018-11-13T07:53:05.998Z,75.60
2018-11-13T07:55:33.579Z,75.70
2018-11-13T07:58:01.253Z,77.20
2018-11-13T08:00:28.937Z,77.40
2018-11-13T08:03:06.686Z,77.60
2018-11-13T08:05:34.380Z,77.90
2018-11-13T08:08:01.950Z,78.80
2018-11-13T08:10:29.607Z,79.00
2018-11-13T08:12:57.329Z,79.00
2018-11-13T08:15:24.763Z,79.30
2018-11-13T08:17:52.336Z,79.60
2018-11-13T08:20:20.118Z,80.00
2018-11-13T08:22:47.749Z,79.80
2018-11-13T08:25:15.508Z,80.50
2018-11-13T08:27:43.128Z,80.40
2018-11-13T08:30:14.414Z,80.10
2018-11-13T08:32:42.527Z,80.10
2018-11-13T08:35:10.334Z,81.00
2018-11-13T08:37:37.842Z,80.00
2018-11-13T08:40:07.514Z,79.00
2018-11-13T08:42:35.115Z,79.40
2018-11-13T08:45:02.719Z,79.80
2018-11-13T08:47:30.294Z,78.90
2018-11-13T08:49:57.839Z,79.10
2018-11-13T08:52:25.434Z,79.10
2018-11-13T08:54:53.244Z,79.10
2018-11-13T08:57:21.349Z,78.60
2018-11-13T08:59:48.939Z,79.30
2018-11-13T09:02:16.514Z,79.40
2018-11-13T09:04:44.130Z,79.00
2018-11-13T09:07:11.802Z,78.30
2018-11-13T09:09:39.976Z,79.10
2018-11-13T09:12:07.633Z,79.30
2018-11-13T09:14:35.134Z,79.20
2018-11-13T09:17:02.692Z,79.40
2018-11-13T09:19:30.464Z,79.00
2018-11-13T09:21:57.822Z,79.10
2018-11-13T09:24:25.430Z,79.50
2018-11-13T09:26:53.005Z,79.20
2018-11-13T09:29:20.584Z,78.70
2018-11-13T09:31:48.288Z,78.40
2018-11-13T09:34:15.828Z,78.90
2018-11-13T09:36:43.467Z,78.60
2018-11-13T09:39:11.798Z,78.60
2018-11-13T09:41:39.386Z,78.70
2018-11-13T09:44:07.066Z,78.80
2018-11-13T09:46:34.623Z,78.70
2018-11-13T09:49:02.308Z,77.40
2018-11-13T09:51:29.858Z,77.40
2018-11-13T09:53:57.490Z,78.00
2018-11-13T09:56:25.123Z,78.50
2018-11-13T09:58:52.780Z,78.50
2018-11-13T10:01:20.442Z,79.10
2018-11-13T10:03:48.620Z,78.10
2018-11-13T10:06:15.562Z,78.00
2018-11-13T10:08:43.146Z,77.80
2018-11-13T10:11:10.747Z,76.80
2018-11-13T10:13:38.412Z,76.90
2018-11-13T10:16:06.467Z,76.10
2018-11-13T10:18:34.087Z,75.80
2018-11-13T10:21:01.686Z,76.00
2018-11-13T10:23:29.238Z,75.40
2018-11-13T10:25:56.799Z,75.30
2018-11-13T10:28:24.366Z,75.00
2018-11-13T10:30:51.998Z,74.60
2018-11-13T10:33:19.598Z,75.30
2018-11-13T10:35:47.196Z,74.20
2018-11-13T10:38:14.751Z,74.20
2018-11-13T10:40:42.467Z,72.20
2018-11-13T10:43:09.952Z,74.30
2018-11-13T10:45:37.551Z,72.90
2018-11-13T10:48:05.371Z,71.40
2018-11-13T10:50:32.997Z,71.90
2018-11-13T10:53:00.635Z,71.90
2018-11-13T10:55:28.193Z,71.60
2018-11-13T10:57:55.774Z,71.50
2018-11-13T11:00:28.823Z,71.00
2018-11-13T11:05:08.961Z,71.10
2018-11-13T11:07:36.535Z,71.10
2018-11-13T11:10:05.937Z,71.00
2018-11-13T11:12:33.523Z,70.40
2018-11-13T11:15:01.101Z,70.20
2018-11-13T11:17:28.664Z,70.30
2018-11-13T11:19:56.256Z,70.10
2018-11-13T11:22:23.830Z,70.60
2018-11-13T11:24:51.481Z,70.80
2018-11-13T11:27:19.038Z,69.60
2018-11-13T11:29:46.603Z,69.90
2018-11-13T11:32:14.209Z,70.10
2018-11-13T11:34:42.201Z,70.40
2018-11-13T11:37:09.778Z,69.40
2018-11-13T11:39:37.331Z,69.80
2018-11-13T11:42:04.975Z,69.90
2018-11-13T11:44:32.775Z,69.70
2018-11-13T11:47:00.234Z,70.40
2018-11-13T11:49:27.813Z,70.10
2018-11-13T11:51:55.464Z,70.20
2018-11-13T11:54:23.047Z,70.00
2018-11-13T11:56:50.669Z,69.40
2018-11-13T11:59:18.220Z,69.40
2018-11-13T12:01:45.830Z,69.50
2018-11-13T12:04:13.408Z,69.70
2018-11-13T12:06:41.042Z,69.90
2018-11-13T12:09:09.463Z,70.00
2018-11-13T12:11:37.961Z,69.40
2018-11-13T12:14:05.535Z,68.90
2018-11-13T12:16:33.105Z,68.00
2018-11-13T12:19:01.653Z,68.00
2018-11-13T12:21:29.214Z,68.10
2018-11-13T12:23:56.778Z,68.30
2018-11-13T12:26:24.335Z,68.00
2018-11-13T12:28:51.973Z,67.90
2018-11-13T12:31:19.622Z,67.70
2018-11-13T12:33:47.324Z,67.10
2018-11-13T12:36:14.916Z,65.80
2018-11-13T12:38:42.506Z,66.10
2018-11-13T12:41:10.080Z,65.90
2018-11-13T12:43:37.722Z,65.40
2018-11-13T12:46:05.442Z,64.70
2018-11-13T12:48:33.095Z,65.60
2018-11-13T12:51:03.050Z,64.80
2018-11-13T12:53:30.795Z,64.10
2018-11-13T12:56:00.407Z,64.10
2018-11-13T12:58:25.999Z,64.00
2018-11-13T13:00:53.634Z,64.50
2018-11-13T13:03:21.218Z,63.90
2018-11-13T13:05:48.853Z,63.30
2018-11-13T13:08:16.522Z,63.80
2018-11-13T13:10:44.172Z,63.70
2018-11-13T13:13:11.854Z,64.00
2018-11-13T13:15:39.450Z,64.20
2018-11-13T13:18:07.063Z,63.30
2018-11-13T13:20:34.648Z,63.60
2018-11-13T13:23:02.222Z,63.70
2018-11-13T13:25:29.898Z,63.30
2018-11-13T13:27:57.459Z,63.00
2018-11-13T13:30:25.703Z,63.90
2018-11-13T13:32:53.386Z,62.80
2018-11-13T13:35:53.095Z,62.40
2018-11-13T13:38:20.739Z,61.10
2018-11-13T13:40:49.505Z,61.70
2018-11-13T13:43:17.490Z,60.90
2018-11-13T13:45:45.906Z,60.80
2018-11-13T13:48:13.627Z,59.30
2018-11-13T13:50:41.262Z,59.90
2018-11-13T13:53:09.880Z,60.30
2018-11-13T13:55:37.586Z,60.30
2018-11-13T13:58:05.298Z,60.50
2018-11-13T14:00:32.960Z,61.00
2018-11-13T14:03:00.798Z,60.20
2018-11-13T14:05:28.426Z,59.90
2018-11-13T14:07:56.157Z,60.10
2018-11-13T14:10:23.750Z,60.30
2018-11-13T14:12:51.398Z,60.40
2018-11-13T14:15:19.180Z,59.60
2018-11-13T14:17:46.751Z,58.50
2018-11-13T14:20:15.450Z,59.40
2018-11-13T14:22:43.118Z,58.70
2018-11-13T14:25:11.493Z,58.50
2018-11-13T14:27:39.264Z,59.20
2018-11-13T14:30:21.435Z,59.70
2018-11-13T14:32:50.461Z,59.90
2018-11-13T14:35:18.999Z,58.70
2018-11-13T14:37:46.905Z,59.20
2018-11-13T14:40:18.863Z,59.20
2018-11-13T14:42:46.928Z,59.20
2018-11-13T14:45:14.872Z,58.50
2018-11-13T14:47:43.335Z,59.10
2018-11-13T14:50:14.195Z,59.60
2018-11-13T14:52:42.104Z,59.70
2018-11-13T14:55:13.758Z,60.30
2018-11-13T14:57:41.600Z,59.80
2018-11-13T15:00:13.669Z,59.90
2018-11-13T15:02:41.831Z,60.20
2018-11-13T15:05:11.783Z,60.30
2018-11-13T15:07:39.605Z,60.30
2018-11-13T15:10:15.890Z,60.70
2018-11-13T15:12:43.580Z,60.80
2018-11-13T15:15:11.350Z,61.40
2018-11-13T15:17:39.749Z,60.30
2018-11-13T15:20:10.680Z,60.30
2018-11-13T15:22:38.306Z,60.60
2018-11-13T15:25:08.150Z,60.50
2018-11-13T15:27:35.756Z,60.40
2018-11-13T15:30:05.529Z,60.80
2018-11-13T15:32:33.110Z,60.30
2018-11-13T15:35:00.723Z,60.10
2018-11-13T15:37:28.318Z,59.70
2018-11-13T15:39:55.986Z,60.20
2018-11-13T15:42:23.578Z,60.40
2018-11-13T15:44:51.303Z,60.20
2018-11-13T15:47:18.902Z,60.60
2018-11-13T15:49:46.459Z,61.20
2018-11-13T15:52:14.188Z,61.70
2018-11-13T15:54:41.668Z,62.00
2018-11-13T15:57:09.266Z,62.30
2018-11-13T15:59:36.850Z,61.80
2018-11-13T16:02:04.763Z,62.00
2018-11-13T16:04:32.360Z,62.00
2018-11-13T16:06:59.959Z,61.90
2018-11-13T16:09:27.551Z,62.10
2018-11-13T16:11:55.162Z,62.00
2018-11-13T16:14:22.827Z,62.50
2018-11-13T16:16:51.585Z,62.50
2018-11-13T16:19:18.094Z,62.90
2018-11-13T16:21:45.782Z,63.20
2018-11-13T16:24:13.383Z,63.30
2018-11-13T16:26:41.084Z,63.00
2018-11-13T16:29:08.709Z,62.90
2018-11-13T16:31:36.225Z,62.90
2018-11-13T16:34:04.820Z,63.10
2018-11-13T16:36:32.525Z,63.50
2018-11-13T16:39:00.077Z,63.70
2018-11-13T16:41:27.721Z,64.00
2018-11-13T16:43:55.363Z,64.00
2018-11-13T16:46:23.098Z,64.20
2018-11-13T16:48:50.732Z,64.60
2018-11-13T16:51:18.339Z,64.80
2018-11-13T16:53:51.518Z,65.00
2018-11-13T16:56:19.116Z,65.00
2018-11-13T16:58:46.825Z,64.90
2018-11-13T17:01:14.498Z,64.70
2018-11-13T17:03:42.256Z,64.80
2018-11-13T17:06:09.905Z,64.90
2018-11-13T17:08:37.455Z,64.90
2018-11-13T17:11:05.100Z,65.10
2018-11-13T17:13:32.727Z,65.40
2018-11-13T17:16:00.405Z,65.20
2018-11-13T17:18:28.703Z,65.40
2018-11-13T17:20:56.291Z,65.30
2018-11-13T17:23:24.013Z,65.50
2018-11-13T17:25:51.671Z,65.70
2018-11-13T17:28:19.215Z,66.00
2018-11-13T17:30:46.975Z,66.00
2018-11-13T17:33:14.547Z,66.00
2018-11-13T17:35:42.178Z,65.90
2018-11-13T17:38:09.873Z,65.90
2018-11-13T17:40:37.854Z,65.60
2018-11-13T17:43:06.234Z,65.50
2018-11-13T17:45:35.961Z,65.70
2018-11-13T17:48:03.684Z,65.80
2018-11-13T17:50:33.519Z,65.90
2018-11-13T17:53:01.331Z,65.90
2018-11-13T17:55:29.014Z,66.00
2018-11-13T17:57:59.059Z,65.90
2018-11-13T18:00:30.561Z,66.10
2018-11-13T18:02:58.307Z,66.30
2018-11-13T18:05:26.426Z,66.40
2018-11-13T18:07:55.035Z,66.50
2018-11-13T18:10:22.927Z,66.50
2018-11-13T18:12:50.582Z,66.40
2018-11-13T18:15:19.792Z,66.50
2018-11-13T18:17:47.723Z,66.60
2018-11-13T18:20:17.710Z,66.70
2018-11-13T18:22:45.798Z,66.80
2018-11-13T18:25:13.371Z,66.80
2018-11-13T18:27:42.825Z,67.00
2018-11-13T18:30:15.505Z,67.20
2018-11-13T18:32:43.617Z,66.90
2018-11-13T18:35:14.027Z,66.90
2018-11-13T18:37:41.858Z,67.20
2018-11-13T18:40:11.715Z,66.80
2018-11-13T18:42:39.635Z,67.00
2018-11-13T18:45:11.035Z,66.80
2018-11-13T18:47:39.119Z,66.70
2018-11-13T18:50:09.424Z,66.50
2018-11-13T18:52:37.325Z,66.70
2018-11-13T18:55:05.392Z,66.60
2018-11-13T18:57:32.977Z,66.50
2018-11-13T19:00:00.604Z,66.30
2018-11-13T19:02:28.441Z,66.30
2018-11-13T19:04:56.400Z,66.50
2018-11-13T19:07:24.277Z,66.60
2018-11-13T19:09:51.954Z,66.40
2018-11-13T19:12:20.251Z,66.50
2018-11-13T19:14:48.105Z,66.60
2018-11-13T19:17:15.816Z,66.50
2018-11-13T19:19:43.545Z,66.70
2018-11-13T19:22:11.181Z,66.80
2018-11-13T19:24:38.855Z,66.50
2018-11-13T19:27:06.602Z,66.30
2018-11-13T19:29:34.318Z,67.30
2018-11-13T19:32:01.918Z,66.90
2018-11-13T19:34:29.570Z,68.20
2018-11-13T19:36:57.167Z,68.90
2018-11-13T19:39:24.802Z,67.60
2018-11-13T19:41:52.378Z,68.30
2018-11-13T19:44:20.031Z,68.10
2018-11-13T19:46:47.681Z,69.60
2018-11-13T19:49:15.292Z,69.20
2018-11-13T19:51:43.122Z,68.00
2018-11-13T19:54:10.659Z,68.00
2018-11-13T19:56:38.331Z,67.50
2018-11-13T19:59:05.999Z,67.10
2018-11-13T20:01:33.644Z,69.50
2018-11-13T20:04:01.387Z,67.80
2018-11-13T20:06:29.022Z,69.30
2018-11-13T20:08:56.655Z,68.90
2018-11-13T20:11:24.274Z,68.60
2018-11-13T20:13:51.886Z,69.70
2018-11-13T20:16:19.587Z,69.10
2018-11-13T20:18:47.238Z,68.20
2018-11-13T20:21:15.026Z,67.10
2018-11-13T20:23:42.655Z,67.20
2018-11-13T20:26:10.239Z,69.90
2018-11-13T20:28:37.887Z,69.70
2018-11-13T20:31:05.605Z,68.10
2018-11-13T20:33:33.211Z,69.20
2018-11-13T20:36:00.882Z,69.60
2018-11-13T20:38:28.540Z,70.70
2018-11-13T20:40:56.134Z,69.50
2018-11-13T20:43:23.905Z,70.30
2018-11-13T20:45:51.343Z,69.40
2018-11-13T20:48:19.003Z,69.60
2018-11-13T20:50:46.652Z,70.00
2018-11-13T20:53:14.393Z,70.20
2018-11-13T20:55:42.139Z,69.30
2018-11-13T20:58:10.416Z,67.50
2018-11-13T21:00:38.090Z,66.40
2018-11-13T21:03:06.208Z,68.50
2018-11-13T21:05:33.872Z,70.80
2018-11-13T21:08:01.554Z,69.90
2018-11-13T21:10:35.046Z,68.50
2018-11-13T21:13:03.221Z,66.90
2018-11-13T21:15:30.896Z,69.00
2018-11-13T21:17:58.519Z,69.10
2018-11-13T21:20:26.522Z,70.40
2018-11-13T21:22:53.791Z,70.60
2018-11-13T21:25:22.683Z,70.80
2018-11-13T21:27:53.404Z,70.00
2018-11-13T21:30:21.530Z,69.70
2018-11-13T21:32:50.014Z,70.70
2018-11-13T21:35:17.746Z,70.30
2018-11-13T21:37:46.489Z,67.90
2018-11-13T21:40:16.490Z,66.90
2018-11-13T21:42:44.947Z,67.00
2018-11-13T21:45:13.166Z,70.20
2018-11-13T21:47:41.174Z,70.30
2018-11-13T21:50:10.307Z,70.20
2018-11-13T21:52:38.016Z,67.70
2018-11-13T21:55:07.645Z,67.20
2018-11-13T21:57:35.367Z,68.20
2018-11-13T22:00:03.582Z,69.20
2018-11-13T22:02:31.208Z,70.50
2018-11-13T22:04:58.833Z,69.80
2018-11-13T22:07:26.427Z,69.60
2018-11-13T22:09:54.044Z,70.80
2018-11-13T22:12:21.743Z,72.80
2018-11-13T22:14:49.442Z,71.50
2018-11-13T22:19:38.826Z,69.40
2018-11-13T22:22:19.204Z,71.40
2018-11-13T22:24:57.929Z,70.40
2018-11-13T22:27:47.216Z,70.90
2018-11-13T22:30:28.513Z,71.70
2018-11-13T22:33:08.909Z,71.80
2018-11-13T22:35:49.355Z,71.00
2018-11-13T22:38:27.861Z,68.80
2018-11-13T22:41:15.457Z,71.20
2018-11-13T22:43:55.448Z,69.70
2018-11-13T22:46:36.362Z,67.60
2018-11-13T22:49:16.812Z,67.10
2018-11-13T22:51:57.282Z,67.50
2018-11-13T22:54:37.942Z,67.60
2018-11-13T22:57:18.507Z,67.60
2018-11-13T22:59:58.994Z,67.50
2018-11-13T23:02:39.498Z,67.20
2018-11-13T23:05:19.571Z,67.10
2018-11-13T23:08:00.206Z,67.40
2018-11-13T23:10:40.851Z,67.80
2018-11-13T23:13:21.544Z,68.50
2018-11-13T23:16:01.379Z,70.20
2018-11-13T23:18:41.246Z,68.30
2018-11-13T23:21:21.141Z,69.10
2018-11-13T23:24:00.999Z,67.90
2018-11-13T23:26:41.621Z,80.50
2018-11-13T23:29:22.201Z,71.70
2018-11-13T23:32:03.184Z,68.70
2018-11-13T23:34:43.418Z,73.20
2018-11-13T23:37:23.277Z,72.50
2018-11-13T23:40:04.004Z,68.20
2018-11-13T23:42:43.085Z,84.70
2018-11-13T23:45:30.611Z,85.00
2018-11-13T23:48:11.254Z,67.20
2018-11-13T23:50:51.528Z,72.10
2018-11-13T23:53:32.158Z,77.00
2018-11-13T23:56:12.334Z,67.00
2018-11-13T23:58:52.975Z,65.70
